EKVG Airport Information

Runway Information
Runway 13 Length 5902 ft width 98 ft
Elevation 268 ft Threshold 0 ft Heading 118
Runway 31 Length 5902 ft Width 98 ft
Elevation 252 ft Threshold 0 ft Heading 298
Airport Frequencies
Type AFIS Name AFIS Frequency 124.85 MHZ
Airport Navaids
Type NDB Name Myggenes Frequency 337 KHZ
Type NDB Name Nolso Frequency 404 KHZ
Type NDB Name Vagar Frequency 348 KHZ
Airport Weather Information & NOTAM
ADDS - METARS form results

(0456 UTC 24 January 2021)
Data provider http://aviationweather.gov/metar/data/
 
METAR text: EKVG 240450Z AUTO 02005KT 9999 NCD 02/00 Q0990
Conditions at: EKVG (SORVAAG/VAGAR , DK) observed 0450 UTC 24 January 2021
Temperature: 2.0°C (36°F)
Dewpoint: 0.0°C (32°F) [RH = 87%]
Pressure (altimeter): 29.23 inches Hg (990.0 mb)
Winds: from the NNE (20 degrees) at 6 MPH (5 knots; 2.6 m/s)
Visibility: 6 or more miles (10+ km)
Ceiling: at least 12,000 feet AGL
Clouds: sky clear below 12,000 feet AGL
Weather: no significant weather observed at this time

METAR text: EKVG 240420Z AUTO 02008KT 9999 NCD 02/M00 Q0990
Conditions at: EKVG (SORVAAG/VAGAR , DK) observed 0420 UTC 24 January 2021
Temperature: 2.0°C (36°F)
Dewpoint: 0.0°C (32°F) [RH = 87%]
Pressure (altimeter): 29.23 inches Hg (990.0 mb)
Winds: from the NNE (20 degrees) at 9 MPH (8 knots; 4.1 m/s)
Visibility: 6 or more miles (10+ km)
Ceiling: at least 12,000 feet AGL
Clouds: sky clear below 12,000 feet AGL
Weather: no significant weather observed at this time